Time;durP1;ratioP1;P1;durP2;ratioP2;P2;SDS_P1;SDS_P2;PMS_P1;PMS_P2;Temp;Humidity;BMP_temperature;BMP_pressure;BME280_temperature;BME280_humidity;BME280_pressure;Samples;Min_cycle;Max_cycle;Signal;HPM_P1;HPM_P2
2021/03/08 00:00:14;;;;;;;3.49;3.19;;;;;;;18.43;41.43;100872.65;;;;-59
2021/03/08 00:03:14;;;;;;;3.95;3.43;;;;;;;18.41;41.36;100869.12;;;;-59
2021/03/08 00:06:14;;;;;;;3.59;3.29;;;;;;;18.40;41.37;100869.91;;;;-59
2021/03/08 00:09:14;;;;;;;4.45;3.31;;;;;;;18.37;41.35;100869.05;;;;-59
2021/03/08 00:12:14;;;;;;;3.67;3.37;;;;;;;18.36;41.29;100866.66;;;;-59
2021/03/08 00:15:14;;;;;;;3.71;3.39;;;;;;;18.34;41.37;100862.03;;;;-59
2021/03/08 00:18:14;;;;;;;3.44;3.14;;;;;;;18.33;41.47;100870.60;;;;-59
2021/03/08 00:21:14;;;;;;;3.65;3.31;;;;;;;18.31;41.39;100873.41;;;;-59
2021/03/08 00:24:14;;;;;;;4.01;3.51;;;;;;;18.29;41.37;100875.31;;;;-59
2021/03/08 00:27:14;;;;;;;3.96;3.56;;;;;;;18.27;41.33;100868.63;;;;-59
2021/03/08 00:30:14;;;;;;;3.69;3.39;;;;;;;18.27;41.40;100869.36;;;;-59
2021/03/08 00:33:14;;;;;;;3.75;3.37;;;;;;;18.23;41.41;100869.36;;;;-59
2021/03/08 00:36:14;;;;;;;3.86;3.41;;;;;;;18.22;41.37;100878.45;;;;-59
2021/03/08 00:39:14;;;;;;;4.05;3.38;;;;;;;18.21;41.41;100872.81;;;;-59
2021/03/08 00:42:14;;;;;;;3.91;3.51;;;;;;;18.18;41.40;100865.47;;;;-59
2021/03/08 00:45:14;;;;;;;4.09;3.69;;;;;;;18.17;41.33;100871.28;;;;-59
2021/03/08 00:48:14;;;;;;;3.88;3.48;;;;;;;18.16;41.38;100872.14;;;;-59
2021/03/08 00:51:14;;;;;;;3.83;3.45;;;;;;;18.15;41.35;100874.24;;;;-59
2021/03/08 00:54:14;;;;;;;3.84;3.44;;;;;;;18.13;41.36;100873.56;;;;-59
2021/03/08 00:57:14;;;;;;;4.09;3.69;;;;;;;18.11;41.30;100871.49;;;;-58
2021/03/08 01:00:14;;;;;;;3.81;3.41;;;;;;;18.10;41.36;100870.84;;;;-59
2021/03/08 01:03:14;;;;;;;3.67;3.36;;;;;;;18.08;41.40;100867.47;;;;-59
2021/03/08 01:06:14;;;;;;;3.99;3.59;;;;;;;18.06;41.35;100870.92;;;;-59
2021/03/08 01:09:14;;;;;;;4.00;3.60;;;;;;;18.04;41.29;100867.23;;;;-59
2021/03/08 01:12:14;;;;;;;4.01;3.63;;;;;;;18.03;41.32;100867.45;;;;-58
2021/03/08 01:15:14;;;;;;;3.93;3.54;;;;;;;18.02;41.38;100869.30;;;;-58
2021/03/08 01:18:14;;;;;;;3.93;3.53;;;;;;;18.01;41.35;100868.22;;;;-59
2021/03/08 01:21:14;;;;;;;4.33;3.77;;;;;;;17.98;41.35;100867.20;;;;-59
2021/03/08 01:24:14;;;;;;;3.93;3.53;;;;;;;17.98;41.39;100870.04;;;;-59
2021/03/08 01:27:14;;;;;;;4.01;3.63;;;;;;;17.97;41.46;100869.03;;;;-59
2021/03/08 01:30:14;;;;;;;4.87;3.60;;;;;;;17.96;41.37;100869.75;;;;-60
2021/03/08 01:33:14;;;;;;;3.93;3.36;;;;;;;17.94;41.43;100871.58;;;;-59
2021/03/08 01:36:14;;;;;;;4.97;3.58;;;;;;;17.93;41.36;100862.98;;;;-59
2021/03/08 01:39:14;;;;;;;4.23;3.83;;;;;;;17.92;41.35;100860.67;;;;-59
2021/03/08 01:42:14;;;;;;;3.98;3.61;;;;;;;17.90;41.42;100866.07;;;;-59
2021/03/08 01:45:14;;;;;;;3.93;3.57;;;;;;;17.89;41.33;100863.64;;;;-59
2021/03/08 01:48:14;;;;;;;3.98;3.65;;;;;;;17.87;41.40;100856.30;;;;-59
2021/03/08 01:51:14;;;;;;;3.77;3.45;;;;;;;17.87;41.41;100850.70;;;;-58
2021/03/08 01:54:14;;;;;;;4.08;3.68;;;;;;;17.85;41.45;100850.18;;;;-59
2021/03/08 01:57:14;;;;;;;4.01;3.61;;;;;;;17.84;41.41;100844.30;;;;-59
2021/03/08 02:00:14;;;;;;;3.99;3.61;;;;;;;17.83;41.39;100847.55;;;;-59
2021/03/08 02:03:14;;;;;;;3.99;3.52;;;;;;;17.81;41.41;100847.64;;;;-59
2021/03/08 02:06:14;;;;;;;3.59;3.29;;;;;;;17.80;41.44;100843.70;;;;-58
2021/03/08 02:09:14;;;;;;;3.75;3.45;;;;;;;17.79;41.37;100844.19;;;;-59
2021/03/08 02:12:14;;;;;;;4.17;3.71;;;;;;;17.78;41.48;100841.72;;;;-58
2021/03/08 02:15:14;;;;;;;3.79;3.44;;;;;;;17.77;41.43;100837.75;;;;-59
2021/03/08 02:18:14;;;;;;;3.88;3.48;;;;;;;17.76;41.40;100838.28;;;;-59
2021/03/08 02:21:14;;;;;;;3.77;3.32;;;;;;;17.74;41.42;100837.10;;;;-59
2021/03/08 02:24:14;;;;;;;3.81;3.48;;;;;;;17.73;41.30;100842.94;;;;-59
2021/03/08 02:27:14;;;;;;;3.74;3.43;;;;;;;17.72;41.41;100838.92;;;;-59
2021/03/08 02:31:14;;;;;;;3.93;3.49;;;;;;;17.71;41.47;100838.11;;;;-59
2021/03/08 02:34:14;;;;;;;4.10;3.70;;;;;;;17.70;41.40;100840.34;;;;-59
2021/03/08 02:37:14;;;;;;;4.12;3.72;;;;;;;17.68;41.34;100834.59;;;;-59
2021/03/08 02:40:14;;;;;;;4.24;3.51;;;;;;;17.66;41.47;100834.55;;;;-59
2021/03/08 02:43:14;;;;;;;3.92;3.52;;;;;;;17.65;41.42;100831.75;;;;-59
2021/03/08 02:46:14;;;;;;;4.06;3.64;;;;;;;17.64;41.43;100830.77;;;;-59
2021/03/08 02:49:14;;;;;;;3.99;3.63;;;;;;;17.64;41.35;100830.66;;;;-59
2021/03/08 02:52:14;;;;;;;4.01;3.57;;;;;;;17.63;41.33;100827.73;;;;-59
2021/03/08 02:55:14;;;;;;;3.99;3.59;;;;;;;17.61;41.43;100828.83;;;;-59
2021/03/08 02:58:14;;;;;;;4.03;3.63;;;;;;;17.61;41.38;100831.50;;;;-59
2021/03/08 03:01:14;;;;;;;4.12;3.72;;;;;;;17.59;41.36;100830.25;;;;-59
2021/03/08 03:04:14;;;;;;;3.75;3.43;;;;;;;17.58;41.39;100825.22;;;;-59
2021/03/08 03:07:14;;;;;;;4.16;3.65;;;;;;;17.57;41.39;100829.72;;;;-59
2021/03/08 03:10:14;;;;;;;3.99;3.59;;;;;;;17.56;41.36;100830.61;;;;-59
2021/03/08 03:13:14;;;;;;;4.41;3.57;;;;;;;17.54;41.42;100836.41;;;;-59
2021/03/08 03:16:14;;;;;;;4.02;3.66;;;;;;;17.54;41.42;100839.97;;;;-59
2021/03/08 03:19:14;;;;;;;3.80;3.40;;;;;;;17.53;41.36;100841.63;;;;-59
2021/03/08 03:22:14;;;;;;;4.05;3.65;;;;;;;17.52;41.41;100836.36;;;;-59
2021/03/08 03:25:15;;;;;;;3.64;3.34;;;;;;;17.51;41.38;100843.94;;;;-58
2021/03/08 03:28:14;;;;;;;3.92;3.50;;;;;;;17.50;41.34;100841.09;;;;-59
2021/03/08 03:31:14;;;;;;;4.12;3.64;;;;;;;17.48;41.41;100839.60;;;;-59
2021/03/08 03:34:14;;;;;;;3.93;3.53;;;;;;;17.47;41.35;100843.41;;;;-59
2021/03/08 03:37:14;;;;;;;3.84;3.46;;;;;;;17.46;41.42;100846.77;;;;-59
2021/03/08 03:40:14;;;;;;;4.03;3.63;;;;;;;17.47;41.43;100853.17;;;;-59
2021/03/08 03:43:14;;;;;;;3.85;3.54;;;;;;;17.45;41.36;100853.30;;;;-58
2021/03/08 03:46:14;;;;;;;4.09;3.69;;;;;;;17.43;41.40;100857.78;;;;-58
2021/03/08 03:49:14;;;;;;;4.42;3.61;;;;;;;17.43;41.30;100859.24;;;;-59
2021/03/08 03:52:14;;;;;;;3.96;3.56;;;;;;;17.41;41.38;100859.12;;;;-59
2021/03/08 03:55:14;;;;;;;3.92;3.53;;;;;;;17.40;41.32;100858.22;;;;-59
2021/03/08 03:58:14;;;;;;;4.01;3.61;;;;;;;17.38;41.36;100857.53;;;;-59
2021/03/08 04:01:14;;;;;;;3.86;3.53;;;;;;;17.39;41.27;100864.91;;;;-59
2021/03/08 04:04:14;;;;;;;3.67;3.36;;;;;;;17.37;41.40;100870.05;;;;-59
2021/03/08 04:07:14;;;;;;;3.79;3.46;;;;;;;17.36;41.42;100873.12;;;;-59
2021/03/08 04:10:14;;;;;;;3.94;3.54;;;;;;;17.35;41.28;100872.55;;;;-59
2021/03/08 04:13:14;;;;;;;3.88;3.48;;;;;;;17.35;41.38;100877.81;;;;-58
2021/03/08 04:16:14;;;;;;;3.81;3.45;;;;;;;17.34;41.33;100882.88;;;;-59
2021/03/08 04:19:14;;;;;;;3.71;3.33;;;;;;;17.32;41.30;100880.41;;;;-59
2021/03/08 04:22:14;;;;;;;3.65;3.34;;;;;;;17.31;41.32;100877.86;;;;-59
2021/03/08 04:25:14;;;;;;;3.65;3.35;;;;;;;17.31;41.34;100880.13;;;;-59
2021/03/08 04:28:14;;;;;;;4.23;3.57;;;;;;;17.29;41.38;100876.47;;;;-59
2021/03/08 04:31:14;;;;;;;3.87;3.47;;;;;;;17.28;41.36;100883.48;;;;-59
2021/03/08 04:34:14;;;;;;;3.72;3.42;;;;;;;17.28;41.33;100887.28;;;;-59
2021/03/08 04:37:14;;;;;;;5.34;3.44;;;;;;;17.26;41.34;100887.41;;;;-59
2021/03/08 04:40:14;;;;;;;3.85;3.45;;;;;;;17.26;41.41;100888.37;;;;-59
2021/03/08 04:43:14;;;;;;;4.14;3.59;;;;;;;17.24;41.30;100889.30;;;;-59
2021/03/08 04:46:14;;;;;;;3.84;3.54;;;;;;;17.24;41.31;100890.75;;;;-59
2021/03/08 04:49:14;;;;;;;3.89;3.59;;;;;;;17.23;41.29;100895.20;;;;-59
2021/03/08 04:52:14;;;;;;;3.89;3.58;;;;;;;17.21;41.29;100890.14;;;;-59
2021/03/08 04:55:14;;;;;;;3.67;3.33;;;;;;;17.21;41.34;100892.48;;;;-59
2021/03/08 04:58:14;;;;;;;3.90;3.50;;;;;;;17.19;41.38;100894.63;;;;-58
2021/03/08 05:01:14;;;;;;;3.75;3.45;;;;;;;17.18;41.29;100892.40;;;;-59
2021/03/08 05:04:14;;;;;;;3.97;3.53;;;;;;;17.18;41.31;100899.13;;;;-59
2021/03/08 05:07:14;;;;;;;3.52;3.22;;;;;;;17.17;41.31;100901.70;;;;-59
2021/03/08 05:10:14;;;;;;;4.07;3.57;;;;;;;17.15;41.25;100900.77;;;;-59
2021/03/08 05:13:14;;;;;;;3.67;3.32;;;;;;;17.15;41.33;100902.47;;;;-58
2021/03/08 05:16:14;;;;;;;3.81;3.50;;;;;;;17.14;41.32;100906.23;;;;-59
2021/03/08 05:19:14;;;;;;;4.02;3.32;;;;;;;17.13;41.29;100906.80;;;;-59
2021/03/08 05:22:14;;;;;;;3.83;3.38;;;;;;;17.12;41.34;100905.81;;;;-59
2021/03/08 05:25:14;;;;;;;4.24;3.45;;;;;;;17.11;41.46;100905.38;;;;-58
2021/03/08 05:28:14;;;;;;;3.60;3.25;;;;;;;17.11;41.32;100908.53;;;;-58
2021/03/08 05:31:14;;;;;;;3.80;3.38;;;;;;;17.10;41.30;100911.48;;;;-59
2021/03/08 05:34:14;;;;;;;3.69;3.33;;;;;;;17.09;41.28;100914.39;;;;-51
2021/03/08 05:37:14;;;;;;;3.61;3.31;;;;;;;17.08;41.25;100911.39;;;;-51
2021/03/08 05:40:14;;;;;;;3.72;3.37;;;;;;;17.07;41.30;100912.32;;;;-51
2021/03/08 05:43:14;;;;;;;8.25;5.04;;;;;;;16.91;37.99;100914.20;;;;-53
2021/03/08 05:46:14;;;;;;;8.69;7.43;;;;;;;16.34;34.90;100918.48;;;;-54
2021/03/08 05:49:14;;;;;;;9.59;8.00;;;;;;;15.89;33.97;100922.73;;;;-52
2021/03/08 05:52:14;;;;;;;10.77;8.98;;;;;;;15.56;33.63;100927.88;;;;-48
2021/03/08 05:55:14;;;;;;;12.29;8.01;;;;;;;15.83;35.32;100929.92;;;;-49
2021/03/08 05:58:14;;;;;;;7.95;7.12;;;;;;;16.00;36.85;100927.97;;;;-49
2021/03/08 06:01:14;;;;;;;7.67;6.70;;;;;;;16.13;37.57;100938.14;;;;-49
2021/03/08 06:04:14;;;;;;;7.49;6.67;;;;;;;16.21;37.77;100947.58;;;;-49
2021/03/08 06:07:14;;;;;;;9.00;6.08;;;;;;;16.27;37.82;100948.63;;;;-49
2021/03/08 06:11:14;;;;;;;7.43;5.86;;;;;;;16.34;38.33;100951.24;;;;-49
2021/03/08 06:14:14;;;;;;;6.13;5.45;;;;;;;16.39;38.57;100954.95;;;;-49
2021/03/08 06:17:14;;;;;;;6.19;5.59;;;;;;;16.44;38.63;100953.78;;;;-49
2021/03/08 06:20:14;;;;;;;6.79;5.36;;;;;;;16.47;38.87;100954.17;;;;-49
2021/03/08 06:23:14;;;;;;;6.62;5.06;;;;;;;16.51;39.09;100949.74;;;;-49
2021/03/08 06:26:14;;;;;;;6.17;4.77;;;;;;;16.56;39.08;100945.93;;;;-49
2021/03/08 06:29:14;;;;;;;6.09;5.06;;;;;;;16.60;38.99;100943.02;;;;-49
2021/03/08 06:32:14;;;;;;;5.47;4.86;;;;;;;16.64;39.13;100950.11;;;;-49
2021/03/08 06:35:16;;;;;;;4.97;4.47;;;;;;;16.68;39.18;100949.53;;;;-49
2021/03/08 06:38:14;;;;;;;5.28;4.50;;;;;;;16.74;39.21;100956.65;;;;-49
2021/03/08 06:41:14;;;;;;;4.85;4.21;;;;;;;16.78;39.27;100956.67;;;;-49
2021/03/08 06:44:14;;;;;;;4.66;4.15;;;;;;;16.82;39.42;100957.54;;;;-49
2021/03/08 06:47:14;;;;;;;5.26;4.51;;;;;;;16.89;39.70;100961.75;;;;-51
2021/03/08 06:50:14;;;;;;;9.60;4.57;;;;;;;16.93;40.04;100964.39;;;;-50
2021/03/08 06:53:14;;;;;;;6.78;4.16;;;;;;;17.00;40.18;100977.99;;;;-50
2021/03/08 06:56:14;;;;;;;5.05;3.91;;;;;;;17.07;40.30;100977.66;;;;-54
2021/03/08 06:59:14;;;;;;;4.92;3.96;;;;;;;17.13;40.40;100967.61;;;;-51
2021/03/08 07:02:14;;;;;;;4.69;3.76;;;;;;;17.20;40.53;100978.53;;;;-56
2021/03/08 07:05:14;;;;;;;4.34;3.81;;;;;;;17.26;40.59;100983.14;;;;-51
2021/03/08 07:08:14;;;;;;;5.53;3.73;;;;;;;17.30;40.50;100982.59;;;;-51
2021/03/08 07:11:14;;;;;;;4.77;3.57;;;;;;;17.32;40.45;100988.23;;;;-51
2021/03/08 07:14:14;;;;;;;5.03;3.46;;;;;;;17.36;40.49;100992.70;;;;-51
2021/03/08 07:17:14;;;;;;;3.73;3.29;;;;;;;17.39;40.44;100989.52;;;;-51
2021/03/08 07:20:14;;;;;;;4.69;3.68;;;;;;;17.40;40.46;100985.18;;;;-52
2021/03/08 07:23:14;;;;;;;4.74;3.49;;;;;;;17.43;40.45;100989.64;;;;-51
2021/03/08 07:26:14;;;;;;;5.64;3.71;;;;;;;17.45;40.38;100990.42;;;;-51
2021/03/08 07:29:14;;;;;;;3.83;3.26;;;;;;;17.46;40.48;100988.16;;;;-51
2021/03/08 07:32:14;;;;;;;3.74;3.33;;;;;;;17.48;40.48;100989.83;;;;-51
2021/03/08 07:35:14;;;;;;;4.87;3.53;;;;;;;17.50;40.12;100997.65;;;;-51
2021/03/08 07:38:14;;;;;;;5.22;3.28;;;;;;;17.50;40.25;101001.22;;;;-51
2021/03/08 07:41:14;;;;;;;6.95;3.26;;;;;;;17.52;40.36;100997.94;;;;-51
2021/03/08 07:44:14;;;;;;;4.61;3.09;;;;;;;17.53;40.37;100999.73;;;;-51
2021/03/08 07:47:14;;;;;;;3.37;3.07;;;;;;;17.54;40.42;100997.02;;;;-52
2021/03/08 07:50:14;;;;;;;4.47;3.17;;;;;;;17.55;40.36;100993.70;;;;-51
2021/03/08 07:53:14;;;;;;;3.59;3.17;;;;;;;17.55;40.35;100996.86;;;;-51
2021/03/08 07:56:14;;;;;;;4.94;3.39;;;;;;;17.56;40.53;100995.28;;;;-53
2021/03/08 07:59:14;;;;;;;5.34;3.09;;;;;;;17.58;40.97;100997.35;;;;-55
2021/03/08 08:02:14;;;;;;;4.36;3.16;;;;;;;17.60;40.88;101002.98;;;;-55
2021/03/08 08:05:14;;;;;;;8.95;3.30;;;;;;;17.60;40.67;101001.77;;;;-54
2021/03/08 08:08:14;;;;;;;4.25;2.94;;;;;;;17.61;40.57;101004.21;;;;-55
2021/03/08 08:11:14;;;;;;;5.26;3.17;;;;;;;17.60;40.54;101002.34;;;;-53
2021/03/08 08:14:14;;;;;;;4.60;2.97;;;;;;;17.61;40.64;101007.05;;;;-54
2021/03/08 08:17:14;;;;;;;5.03;3.10;;;;;;;17.62;40.62;101007.46;;;;-59
2021/03/08 08:20:14;;;;;;;3.79;3.05;;;;;;;17.62;40.58;101007.63;;;;-59
2021/03/08 08:23:14;;;;;;;3.45;2.75;;;;;;;17.62;40.57;101009.77;;;;-59
2021/03/08 08:26:14;;;;;;;4.27;3.09;;;;;;;17.62;40.54;101010.66;;;;-59
2021/03/08 08:29:15;;;;;;;3.29;2.90;;;;;;;17.62;40.53;101005.35;;;;-58
2021/03/08 08:32:15;;;;;;;3.51;2.85;;;;;;;17.61;40.55;101003.65;;;;-59
2021/03/08 08:35:14;;;;;;;3.27;2.71;;;;;;;17.61;40.49;101003.48;;;;-60
2021/03/08 08:38:15;;;;;;;3.99;2.97;;;;;;;17.61;40.48;101003.16;;;;-59
2021/03/08 08:41:14;;;;;;;2.99;2.69;;;;;;;17.61;40.39;101001.30;;;;-60
2021/03/08 08:44:14;;;;;;;3.47;2.70;;;;;;;17.60;40.44;101003.56;;;;-60
2021/03/08 08:48:14;;;;;;;3.58;2.87;;;;;;;17.59;40.52;100998.58;;;;-60
2021/03/08 08:51:14;;;;;;;3.35;2.79;;;;;;;17.58;40.40;101000.44;;;;-60
2021/03/08 08:54:14;;;;;;;3.54;3.12;;;;;;;17.58;40.41;101000.52;;;;-60
2021/03/08 08:57:14;;;;;;;3.77;2.89;;;;;;;17.58;40.40;101000.59;;;;-60
2021/03/08 09:00:14;;;;;;;3.33;2.80;;;;;;;17.57;40.38;101003.23;;;;-59
2021/03/08 09:03:14;;;;;;;3.31;2.69;;;;;;;17.57;40.43;101001.77;;;;-60
2021/03/08 09:06:14;;;;;;;4.39;2.86;;;;;;;17.57;40.54;101004.77;;;;-52
2021/03/08 09:09:14;;;;;;;5.45;2.91;;;;;;;17.60;40.75;101001.36;;;;-62
2021/03/08 09:12:14;;;;;;;3.79;2.70;;;;;;;17.64;40.99;101004.05;;;;-60
2021/03/08 09:15:16;;;;;;;3.73;2.65;;;;;;;17.68;41.17;101000.27;;;;-51
2021/03/08 09:18:14;;;;;;;3.45;2.70;;;;;;;17.74;41.46;101000.60;;;;-60
2021/03/08 09:21:14;;;;;;;4.18;2.90;;;;;;;17.77;41.39;100995.75;;;;-63
2021/03/08 09:24:14;;;;;;;7.49;2.77;;;;;;;17.84;41.35;100994.70;;;;-54
2021/03/08 09:27:14;;;;;;;3.81;2.63;;;;;;;17.90;41.49;100993.86;;;;-57
2021/03/08 09:30:14;;;;;;;3.45;2.53;;;;;;;17.95;41.53;100994.47;;;;-59
2021/03/08 09:33:14;;;;;;;3.45;2.53;;;;;;;18.03;41.66;100995.66;;;;-62
2021/03/08 09:36:14;;;;;;;3.59;2.61;;;;;;;18.12;41.67;100994.66;;;;-59
2021/03/08 09:39:14;;;;;;;4.65;2.59;;;;;;;18.16;41.92;100997.66;;;;-58
2021/03/08 09:42:14;;;;;;;5.43;2.55;;;;;;;18.23;41.59;100997.05;;;;-56
2021/03/08 09:45:14;;;;;;;9.22;2.82;;;;;;;18.28;41.64;100995.39;;;;-54
2021/03/08 09:48:14;;;;;;;14.24;2.81;;;;;;;18.37;41.98;100995.72;;;;-63
2021/03/08 09:51:14;;;;;;;6.15;2.68;;;;;;;18.43;41.97;100992.59;;;;-57
2021/03/08 09:54:14;;;;;;;9.11;2.49;;;;;;;18.50;42.32;100989.38;;;;-56
2021/03/08 09:57:14;;;;;;;4.03;2.52;;;;;;;18.55;41.99;100985.89;;;;-53
2021/03/08 10:00:14;;;;;;;6.42;2.57;;;;;;;18.59;42.19;100981.91;;;;-60
2021/03/08 10:03:14;;;;;;;6.26;2.59;;;;;;;18.65;42.49;100985.75;;;;-60
2021/03/08 10:06:14;;;;;;;5.24;2.49;;;;;;;18.74;42.29;100986.10;;;;-61
2021/03/08 10:09:14;;;;;;;8.73;2.65;;;;;;;18.77;42.14;100982.81;;;;-61
2021/03/08 10:12:14;;;;;;;6.82;2.55;;;;;;;18.78;41.71;100980.86;;;;-54
2021/03/08 10:15:14;;;;;;;10.44;2.74;;;;;;;18.78;41.39;100980.00;;;;-50
2021/03/08 10:18:14;;;;;;;6.01;2.49;;;;;;;18.78;41.52;100979.92;;;;-53
2021/03/08 10:21:14;;;;;;;5.02;2.22;;;;;;;18.77;41.36;100979.08;;;;-54
2021/03/08 10:24:14;;;;;;;4.67;2.61;;;;;;;18.81;41.68;100975.69;;;;-51
2021/03/08 10:27:14;;;;;;;4.12;2.33;;;;;;;18.84;41.77;100978.56;;;;-60
2021/03/08 10:30:14;;;;;;;6.43;2.50;;;;;;;18.86;41.77;100976.36;;;;-58
2021/03/08 10:33:14;;;;;;;4.99;2.33;;;;;;;18.92;41.82;100974.89;;;;-56
2021/03/08 10:36:14;;;;;;;5.09;2.41;;;;;;;18.94;41.75;100979.47;;;;-56
2021/03/08 10:39:14;;;;;;;4.31;2.29;;;;;;;18.97;41.79;100981.41;;;;-57
2021/03/08 10:42:14;;;;;;;7.36;2.75;;;;;;;18.95;40.44;100977.96;;;;-55
2021/03/08 10:45:14;;;;;;;4.45;2.75;;;;;;;18.95;40.38;100975.52;;;;-60
2021/03/08 10:48:14;;;;;;;6.31;2.46;;;;;;;18.99;40.81;100973.16;;;;-58
2021/03/08 10:51:14;;;;;;;4.16;2.39;;;;;;;19.05;40.96;100972.09;;;;-53
2021/03/08 10:54:14;;;;;;;5.14;2.57;;;;;;;19.09;40.95;100967.53;;;;-53
2021/03/08 10:57:14;;;;;;;5.01;2.44;;;;;;;19.14;40.99;100960.15;;;;-56
2021/03/08 11:00:14;;;;;;;4.79;2.55;;;;;;;19.20;41.08;100956.67;;;;-54
2021/03/08 11:03:14;;;;;;;5.09;2.24;;;;;;;19.22;41.04;100953.45;;;;-52
2021/03/08 11:06:14;;;;;;;4.77;2.29;;;;;;;19.27;41.07;100949.37;;;;-53
2021/03/08 11:09:14;;;;;;;6.04;2.45;;;;;;;19.27;40.92;100946.53;;;;-59
2021/03/08 11:12:14;;;;;;;3.74;2.53;;;;;;;19.29;41.04;100945.50;;;;-58
2021/03/08 11:15:14;;;;;;;6.42;2.39;;;;;;;19.32;41.02;100944.42;;;;-56
2021/03/08 11:18:14;;;;;;;5.40;2.30;;;;;;;19.35;41.16;100943.97;;;;-49
2021/03/08 11:21:14;;;;;;;4.02;2.21;;;;;;;19.35;41.10;100943.40;;;;-59
2021/03/08 11:24:14;;;;;;;4.61;2.31;;;;;;;19.38;41.34;100942.32;;;;-51
2021/03/08 11:27:14;;;;;;;6.35;2.29;;;;;;;19.41;41.38;100939.10;;;;-54
2021/03/08 11:30:14;;;;;;;5.15;2.37;;;;;;;19.42;41.28;100937.47;;;;-52
2021/03/08 11:33:14;;;;;;;4.42;2.29;;;;;;;19.42;40.94;100938.20;;;;-54
2021/03/08 11:36:14;;;;;;;5.22;2.34;;;;;;;19.41;40.89;100935.20;;;;-54
2021/03/08 11:39:14;;;;;;;3.37;2.19;;;;;;;19.41;40.88;100928.05;;;;-55
2021/03/08 11:42:14;;;;;;;4.41;2.11;;;;;;;19.40;40.86;100923.06;;;;-54
2021/03/08 11:45:14;;;;;;;5.01;2.33;;;;;;;19.40;40.87;100919.19;;;;-54
2021/03/08 11:48:14;;;;;;;3.67;2.23;;;;;;;19.42;40.83;100924.06;;;;-55
2021/03/08 11:51:14;;;;;;;4.67;2.09;;;;;;;19.41;40.80;100917.97;;;;-55
2021/03/08 11:54:14;;;;;;;3.47;2.09;;;;;;;19.40;40.77;100914.03;;;;-54
2021/03/08 11:57:14;;;;;;;3.16;2.11;;;;;;;19.39;40.80;100909.48;;;;-55
2021/03/08 12:00:14;;;;;;;3.03;2.03;;;;;;;19.40;40.80;100909.89;;;;-55
2021/03/08 12:03:14;;;;;;;2.97;2.02;;;;;;;19.39;40.76;100903.95;;;;-54
2021/03/08 12:06:14;;;;;;;2.82;2.00;;;;;;;19.39;40.70;100895.91;;;;-54
2021/03/08 12:09:14;;;;;;;2.51;1.92;;;;;;;19.39;40.75;100895.02;;;;-55
2021/03/08 12:12:14;;;;;;;3.37;1.93;;;;;;;19.39;40.69;100895.67;;;;-55
2021/03/08 12:15:14;;;;;;;2.92;2.04;;;;;;;19.39;40.73;100888.19;;;;-54
2021/03/08 12:18:14;;;;;;;2.23;1.88;;;;;;;19.39;40.70;100892.25;;;;-55
2021/03/08 12:21:15;;;;;;;2.20;1.93;;;;;;;19.39;40.78;100892.42;;;;-55
2021/03/08 12:24:14;;;;;;;2.31;1.83;;;;;;;19.41;40.71;100887.98;;;;-55
2021/03/08 12:27:14;;;;;;;4.04;2.12;;;;;;;19.41;40.76;100888.46;;;;-58
2021/03/08 12:30:14;;;;;;;2.69;2.11;;;;;;;19.43;40.70;100882.88;;;;-59
2021/03/08 12:33:14;;;;;;;3.15;1.97;;;;;;;19.44;40.66;100879.47;;;;-58
2021/03/08 12:36:14;;;;;;;2.57;1.91;;;;;;;19.43;40.76;100875.48;;;;-59
2021/03/08 12:39:14;;;;;;;2.19;1.77;;;;;;;19.45;40.72;100868.93;;;;-59
2021/03/08 12:42:14;;;;;;;2.89;1.91;;;;;;;19.46;40.72;100863.56;;;;-59
2021/03/08 12:45:14;;;;;;;1.83;1.73;;;;;;;19.46;40.75;100855.88;;;;-58
2021/03/08 12:48:14;;;;;;;2.53;2.13;;;;;;;19.47;40.74;100856.20;;;;-59
2021/03/08 12:51:14;;;;;;;2.77;1.87;;;;;;;19.48;40.73;100852.70;;;;-58
2021/03/08 12:54:14;;;;;;;2.93;1.95;;;;;;;19.49;40.72;100846.87;;;;-59
2021/03/08 12:57:14;;;;;;;2.51;1.79;;;;;;;19.50;40.73;100842.64;;;;-58
2021/03/08 13:00:14;;;;;;;2.09;1.89;;;;;;;19.50;40.66;100839.39;;;;-59
2021/03/08 13:03:14;;;;;;;2.11;1.81;;;;;;;19.50;40.71;100834.68;;;;-58
2021/03/08 13:06:14;;;;;;;2.01;1.80;;;;;;;19.51;40.69;100831.50;;;;-59
2021/03/08 13:09:14;;;;;;;2.62;1.77;;;;;;;19.51;40.64;100823.08;;;;-58
2021/03/08 13:12:14;;;;;;;2.04;1.84;;;;;;;19.51;40.65;100820.64;;;;-58
2021/03/08 13:15:14;;;;;;;2.01;1.81;;;;;;;19.51;40.68;100816.71;;;;-51
2021/03/08 13:18:14;;;;;;;2.18;1.78;;;;;;;19.50;40.65;100810.94;;;;-58
2021/03/08 13:21:14;;;;;;;2.41;1.87;;;;;;;19.51;40.69;100808.53;;;;-63
2021/03/08 13:24:14;;;;;;;5.83;2.84;;;;;;;19.51;40.60;100807.55;;;;-62
2021/03/08 13:27:14;;;;;;;7.41;3.84;;;;;;;19.52;40.40;100807.47;;;;-63
2021/03/08 13:30:14;;;;;;;7.66;4.71;;;;;;;19.52;40.21;100804.62;;;;-64
2021/03/08 13:33:14;;;;;;;8.93;5.31;;;;;;;19.53;40.13;100804.57;;;;-61
2021/03/08 13:36:14;;;;;;;9.70;6.41;;;;;;;19.55;40.12;100807.81;;;;-63
2021/03/08 13:39:14;;;;;;;12.29;7.43;;;;;;;19.54;39.76;100803.59;;;;-61
2021/03/08 13:42:14;;;;;;;11.79;7.10;;;;;;;19.54;39.17;100801.89;;;;-57
2021/03/08 13:45:14;;;;;;;13.21;7.59;;;;;;;19.54;39.51;100800.75;;;;-62
2021/03/08 13:48:14;;;;;;;14.75;8.51;;;;;;;19.54;39.67;100800.59;;;;-62
2021/03/08 13:51:14;;;;;;;14.53;8.39;;;;;;;19.54;39.22;100806.28;;;;-60
2021/03/08 13:54:14;;;;;;;13.35;7.55;;;;;;;19.53;39.41;100805.80;;;;-60
2021/03/08 13:57:14;;;;;;;12.61;7.87;;;;;;;19.54;39.71;100805.38;;;;-58
2021/03/08 14:00:14;;;;;;;14.50;7.06;;;;;;;19.57;39.72;100806.16;;;;-61
2021/03/08 14:03:14;;;;;;;11.20;6.47;;;;;;;19.58;39.52;100802.58;;;;-60
2021/03/08 14:06:14;;;;;;;11.77;5.73;;;;;;;19.57;39.61;100799.17;;;;-61
2021/03/08 14:09:14;;;;;;;9.35;5.37;;;;;;;19.56;39.74;100795.65;;;;-52
2021/03/08 14:12:14;;;;;;;8.62;5.07;;;;;;;19.56;38.92;100794.19;;;;-63
2021/03/08 14:15:14;;;;;;;8.76;5.00;;;;;;;19.56;38.61;100796.87;;;;-58
2021/03/08 14:18:14;;;;;;;9.45;4.94;;;;;;;19.60;39.12;100792.94;;;;-58
2021/03/08 14:21:14;;;;;;;11.77;5.55;;;;;;;19.61;39.34;100792.23;;;;-64
2021/03/08 14:24:14;;;;;;;11.06;5.87;;;;;;;19.63;39.34;100792.14;;;;-62
2021/03/08 14:27:14;;;;;;;8.67;5.12;;;;;;;19.65;39.57;100792.11;;;;-64
2021/03/08 14:30:14;;;;;;;8.89;4.89;;;;;;;19.69;39.71;100790.17;;;;-60
2021/03/08 14:33:14;;;;;;;9.37;5.05;;;;;;;19.73;39.82;100789.59;;;;-63
2021/03/08 14:36:14;;;;;;;9.82;4.77;;;;;;;19.76;40.03;100784.61;;;;-63
2021/03/08 14:39:14;;;;;;;8.09;4.67;;;;;;;19.77;40.11;100778.42;;;;-59
2021/03/08 14:42:14;;;;;;;6.71;4.59;;;;;;;19.80;40.14;100778.06;;;;-59
2021/03/08 14:45:14;;;;;;;7.74;4.63;;;;;;;19.83;40.21;100776.13;;;;-61
2021/03/08 14:48:14;;;;;;;7.44;4.48;;;;;;;19.84;40.22;100774.84;;;;-59
2021/03/08 14:51:14;;;;;;;8.55;4.66;;;;;;;19.87;40.30;100775.44;;;;-56
2021/03/08 14:54:14;;;;;;;7.93;4.43;;;;;;;19.91;40.37;100774.98;;;;-61
2021/03/08 14:57:14;;;;;;;7.73;4.38;;;;;;;19.93;40.36;100774.03;;;;-58
2021/03/08 15:00:14;;;;;;;7.87;4.46;;;;;;;19.95;40.37;100775.67;;;;-60
2021/03/08 15:03:14;;;;;;;8.41;4.29;;;;;;;19.98;40.29;100768.94;;;;-58
2021/03/08 15:06:14;;;;;;;6.89;4.35;;;;;;;19.97;40.12;100771.39;;;;-57
2021/03/08 15:09:14;;;;;;;6.83;4.07;;;;;;;19.95;40.00;100774.22;;;;-58
2021/03/08 15:12:14;;;;;;;5.99;4.00;;;;;;;19.94;39.98;100765.24;;;;-58
2021/03/08 15:15:14;;;;;;;6.77;3.86;;;;;;;19.95;39.92;100768.28;;;;-57
2021/03/08 15:18:14;;;;;;;5.52;4.00;;;;;;;19.94;39.89;100768.17;;;;-58
2021/03/08 15:21:14;;;;;;;6.79;4.19;;;;;;;19.93;39.84;100762.89;;;;-58
2021/03/08 15:24:14;;;;;;;6.48;4.29;;;;;;;19.90;39.87;100764.02;;;;-62
2021/03/08 15:27:14;;;;;;;7.99;3.80;;;;;;;19.89;39.50;100760.49;;;;-60
2021/03/08 15:30:14;;;;;;;6.29;3.65;;;;;;;19.89;39.34;100759.84;;;;-60
2021/03/08 15:33:14;;;;;;;6.38;3.83;;;;;;;19.87;39.39;100766.66;;;;-61
2021/03/08 15:36:14;;;;;;;6.33;3.67;;;;;;;19.87;39.48;100758.84;;;;-65
2021/03/08 15:39:16;;;;;;;7.71;3.77;;;;;;;19.87;39.67;100752.58;;;;-58
2021/03/08 15:42:14;;;;;;;7.99;3.65;;;;;;;19.89;39.77;100752.36;;;;-62
2021/03/08 15:45:14;;;;;;;9.35;3.43;;;;;;;19.90;39.69;100751.54;;;;-59
2021/03/08 15:48:14;;;;;;;8.43;3.78;;;;;;;19.87;39.78;100754.45;;;;-60
2021/03/08 15:51:14;;;;;;;6.37;3.66;;;;;;;19.86;39.68;100753.45;;;;-65
2021/03/08 15:54:14;;;;;;;6.07;3.68;;;;;;;19.87;39.40;100758.52;;;;-58
2021/03/08 15:57:14;;;;;;;8.98;3.81;;;;;;;19.86;39.58;100755.34;;;;-57
2021/03/08 16:00:14;;;;;;;6.67;3.15;;;;;;;19.88;39.73;100761.06;;;;-58
2021/03/08 16:03:14;;;;;;;5.35;3.07;;;;;;;19.93;39.88;100755.97;;;;-59
2021/03/08 16:06:14;;;;;;;7.75;3.22;;;;;;;19.90;39.80;100753.19;;;;-62
2021/03/08 16:09:14;;;;;;;6.19;3.25;;;;;;;19.94;39.85;100752.14;;;;-58
2021/03/08 16:12:14;;;;;;;7.22;3.28;;;;;;;19.99;39.95;100751.39;;;;-59
2021/03/08 16:15:14;;;;;;;4.83;3.17;;;;;;;20.02;40.06;100754.34;;;;-62
2021/03/08 16:18:14;;;;;;;4.22;3.13;;;;;;;20.05;40.12;100756.00;;;;-58
2021/03/08 16:21:14;;;;;;;4.50;3.20;;;;;;;20.05;39.94;100756.98;;;;-66
2021/03/08 16:24:14;;;;;;;11.03;3.43;;;;;;;20.03;39.88;100753.70;;;;-57
2021/03/08 16:27:14;;;;;;;6.88;4.15;;;;;;;20.02;39.28;100753.20;;;;-57
2021/03/08 16:30:14;;;;;;;8.07;4.94;;;;;;;20.02;39.17;100754.50;;;;-58
2021/03/08 16:33:14;;;;;;;7.66;4.77;;;;;;;20.02;39.16;100754.17;;;;-62
2021/03/08 16:36:14;;;;;;;9.15;3.96;;;;;;;20.08;39.54;100754.22;;;;-59
2021/03/08 16:39:15;;;;;;;10.73;3.89;;;;;;;20.13;39.86;100752.98;;;;-58
2021/03/08 16:42:14;;;;;;;6.38;3.66;;;;;;;20.15;39.85;100755.36;;;;-61